createdAt,value
2023-10-10T00:00:11.814Z,10.60
2023-10-10T00:03:15.744Z,10.60
2023-10-10T00:06:19.769Z,10.60
2023-10-10T00:09:24.855Z,10.50
2023-10-10T00:12:30.359Z,10.50
2023-10-10T00:15:39.639Z,10.50
2023-10-10T00:18:44.775Z,10.50
2023-10-10T00:21:50.137Z,10.50
2023-10-10T00:24:55.135Z,10.50
2023-10-10T00:28:01.268Z,10.60
2023-10-10T00:31:09.832Z,10.60
2023-10-10T00:34:40.867Z,10.60
2023-10-10T00:37:46.075Z,10.50
2023-10-10T00:40:50.807Z,10.60
2023-10-10T00:43:54.552Z,10.60
2023-10-10T00:46:59.239Z,10.60
2023-10-10T00:50:02.401Z,10.60
2023-10-10T00:53:12.893Z,10.70
2023-10-10T00:56:17.561Z,10.70
2023-10-10T00:59:21.317Z,10.70
2023-10-10T01:02:25.053Z,10.70
2023-10-10T01:05:40.779Z,10.70
2023-10-10T01:08:52.079Z,10.70
2023-10-10T01:11:56.865Z,10.70
2023-10-10T01:15:08.546Z,10.70
2023-10-10T01:18:16.616Z,10.70
2023-10-10T01:21:31.869Z,10.70
2023-10-10T01:24:35.104Z,10.70
2023-10-10T01:27:40.776Z,10.70
2023-10-10T01:30:58.856Z,10.70
2023-10-10T01:34:02.086Z,10.70
2023-10-10T01:37:08.965Z,10.70
2023-10-10T01:40:14.456Z,10.70
2023-10-10T01:43:18.308Z,10.80
2023-10-10T01:46:29.019Z,10.80
2023-10-10T01:49:33.171Z,10.80
2023-10-10T01:52:42.455Z,10.80
2023-10-10T01:55:48.777Z,10.80
2023-10-10T01:58:55.087Z,10.80
2023-10-10T02:01:59.077Z,10.80
2023-10-10T02:05:04.753Z,10.90
2023-10-10T02:08:12.987Z,10.90
2023-10-10T02:11:16.206Z,10.80
2023-10-10T02:14:20.306Z,10.80
2023-10-10T02:17:26.509Z,10.80
2023-10-10T02:20:51.040Z,10.80
2023-10-10T02:24:01.011Z,10.80
2023-10-10T02:27:06.525Z,10.80
2023-10-10T02:30:13.641Z,10.80
2023-10-10T02:33:25.587Z,10.80
2023-10-10T02:36:36.102Z,10.80
2023-10-10T02:39:56.469Z,10.80
2023-10-10T02:43:19.933Z,10.80
2023-10-10T02:46:34.860Z,10.70
2023-10-10T02:49:39.305Z,10.80
2023-10-10T02:52:50.825Z,10.80
2023-10-10T02:56:02.651Z,10.80
2023-10-10T02:59:06.554Z,10.80
2023-10-10T03:02:11.592Z,10.90
2023-10-10T03:05:18.278Z,10.90
2023-10-10T03:08:35.725Z,10.90
2023-10-10T03:11:54.213Z,10.90
2023-10-10T03:15:13.780Z,10.90
2023-10-10T03:18:29.659Z,11.00
2023-10-10T03:21:46.188Z,11.00
2023-10-10T03:25:08.553Z,11.00
2023-10-10T03:28:21.952Z,11.00
2023-10-10T03:31:32.824Z,11.00
2023-10-10T03:34:45.737Z,11.10
2023-10-10T03:37:55.977Z,11.00
2023-10-10T03:41:21.862Z,11.10
2023-10-10T03:44:44.155Z,11.10
2023-10-10T03:48:04.677Z,11.10
2023-10-10T03:51:27.720Z,11.20
2023-10-10T03:54:48.279Z,11.20
2023-10-10T03:58:08.865Z,11.20
2023-10-10T04:01:30.705Z,11.20
2023-10-10T04:04:51.461Z,11.20
2023-10-10T04:08:12.457Z,11.30
2023-10-10T04:11:34.365Z,11.30
2023-10-10T04:14:54.999Z,11.30
2023-10-10T04:18:17.620Z,11.30
2023-10-10T04:21:38.303Z,11.40
2023-10-10T04:25:02.179Z,11.40
2023-10-10T04:28:24.014Z,11.40
2023-10-10T04:31:44.411Z,11.40
2023-10-10T04:35:06.061Z,11.50
2023-10-10T04:38:27.097Z,11.40
2023-10-10T04:41:47.342Z,11.50
2023-10-10T04:45:09.650Z,11.50
2023-10-10T04:48:30.225Z,11.50
2023-10-10T04:51:52.638Z,11.50
2023-10-10T04:55:13.031Z,11.50
2023-10-10T04:58:45.263Z,11.60
2023-10-10T05:02:02.245Z,11.60
2023-10-10T05:05:23.562Z,11.70
2023-10-10T05:08:45.259Z,11.70
2023-10-10T05:12:05.909Z,11.70
2023-10-10T05:15:26.773Z,11.70
2023-10-10T05:18:49.457Z,11.70
2023-10-10T05:22:11.508Z,11.70
2023-10-10T05:25:24.206Z,11.80
2023-10-10T05:28:31.212Z,11.90
2023-10-10T05:31:34.321Z,11.90
2023-10-10T05:34:38.354Z,11.90
2023-10-10T05:37:41.857Z,11.90
2023-10-10T05:40:48.365Z,11.90
2023-10-10T05:43:51.797Z,12.00
2023-10-10T05:46:55.197Z,12.00
2023-10-10T05:49:58.748Z,12.10
2023-10-10T05:53:04.791Z,12.10
2023-10-10T05:56:18.777Z,12.20
2023-10-10T05:59:24.948Z,12.30
2023-10-10T06:02:28.546Z,12.30
2023-10-10T06:05:31.792Z,12.30
2023-10-10T06:08:37.348Z,12.30
2023-10-10T06:11:41.918Z,12.50
2023-10-10T06:14:45.059Z,12.50
2023-10-10T06:17:49.799Z,12.50
2023-10-10T06:21:08.758Z,12.50
2023-10-10T06:24:14.480Z,12.50
2023-10-10T06:27:21.795Z,12.60
2023-10-10T06:30:25.855Z,12.70
2023-10-10T06:33:29.946Z,12.80
2023-10-10T06:36:38.513Z,12.90
2023-10-10T06:39:55.514Z,12.90
2023-10-10T06:43:03.372Z,13.00
2023-10-10T06:46:07.154Z,13.10
2023-10-10T06:49:13.380Z,13.20
2023-10-10T06:52:20.238Z,13.30
2023-10-10T06:55:24.363Z,13.30
2023-10-10T06:58:34.759Z,13.40
2023-10-10T07:01:41.127Z,13.50
2023-10-10T07:04:44.198Z,13.50
2023-10-10T07:07:53.314Z,13.50
2023-10-10T07:10:56.551Z,13.50
2023-10-10T07:14:01.269Z,13.60
2023-10-10T07:17:12.506Z,13.60
2023-10-10T07:20:32.913Z,13.60
2023-10-10T07:23:40.443Z,13.70
2023-10-10T07:26:59.630Z,13.70
2023-10-10T07:30:17.617Z,13.80
2023-10-10T07:33:24.852Z,13.80
2023-10-10T07:36:29.347Z,13.80
2023-10-10T07:39:37.114Z,13.90
2023-10-10T07:42:40.203Z,13.90
2023-10-10T07:45:45.613Z,13.90
2023-10-10T07:48:47.677Z,13.90
2023-10-10T07:51:51.041Z,13.90
2023-10-10T07:54:55.024Z,13.90
2023-10-10T07:58:00.412Z,13.90
2023-10-10T08:01:10.853Z,13.90
2023-10-10T08:04:18.112Z,14.00
2023-10-10T08:07:21.888Z,14.10
2023-10-10T08:10:39.371Z,14.20
2023-10-10T08:13:49.809Z,14.30
2023-10-10T08:17:00.662Z,14.40
2023-10-10T08:20:24.362Z,14.40
2023-10-10T08:23:28.541Z,14.30
2023-10-10T08:26:40.281Z,14.40
2023-10-10T08:29:43.551Z,14.50
2023-10-10T08:32:49.850Z,14.60
2023-10-10T08:35:53.094Z,14.70
2023-10-10T08:38:58.370Z,14.70
2023-10-10T08:42:06.480Z,14.80
2023-10-10T08:45:23.545Z,14.90
2023-10-10T08:48:29.744Z,15.00
2023-10-10T08:51:35.468Z,15.20
2023-10-10T08:54:42.184Z,15.20
2023-10-10T08:57:47.026Z,15.20
2023-10-10T09:00:50.422Z,15.30
2023-10-10T09:03:58.722Z,15.30
2023-10-10T09:07:09.780Z,15.20
2023-10-10T09:10:16.178Z,15.20
2023-10-10T09:13:19.996Z,15.10
2023-10-10T09:16:43.406Z,15.20
2023-10-10T09:19:48.953Z,15.30
2023-10-10T09:22:53.809Z,15.50
2023-10-10T09:26:20.357Z,15.50
2023-10-10T09:29:33.651Z,15.50
2023-10-10T09:32:43.809Z,15.50
2023-10-10T09:35:50.082Z,15.50
2023-10-10T09:38:58.755Z,15.50
2023-10-10T09:42:07.759Z,15.50
2023-10-10T09:45:28.286Z,15.60
2023-10-10T09:48:54.998Z,15.60
2023-10-10T09:52:14.234Z,15.80
2023-10-10T09:55:40.318Z,15.80
2023-10-10T09:58:46.057Z,15.80
2023-10-10T10:01:49.702Z,15.90
2023-10-10T10:04:55.110Z,15.80
2023-10-10T10:08:07.873Z,16.00
2023-10-10T10:11:15.756Z,16.10
2023-10-10T10:14:29.743Z,16.20
2023-10-10T10:17:48.578Z,16.20
2023-10-10T10:21:06.883Z,16.20
2023-10-10T10:24:17.884Z,15.90
2023-10-10T10:27:25.904Z,15.90
2023-10-10T10:30:48.025Z,15.80
2023-10-10T10:34:07.883Z,15.80
2023-10-10T10:37:21.051Z,15.80
2023-10-10T10:40:42.802Z,15.80
2023-10-10T10:43:51.171Z,16.00
2023-10-10T10:46:58.229Z,15.80
2023-10-10T10:50:04.082Z,15.80
2023-10-10T10:53:09.777Z,15.80
2023-10-10T10:56:32.963Z,16.00
2023-10-10T10:59:40.706Z,16.00
2023-10-10T11:02:51.115Z,15.80
2023-10-10T11:05:57.195Z,15.80
2023-10-10T11:09:10.908Z,15.80
2023-10-10T11:12:15.715Z,16.00
2023-10-10T11:15:20.313Z,16.00
2023-10-10T11:18:35.949Z,16.10
2023-10-10T11:21:48.621Z,16.10
2023-10-10T11:24:58.959Z,16.20
2023-10-10T11:28:05.357Z,16.10
2023-10-10T11:31:08.919Z,16.00
2023-10-10T11:34:27.202Z,15.80
2023-10-10T11:37:36.123Z,15.60
2023-10-10T11:40:39.170Z,15.60
2023-10-10T11:44:13.982Z,15.60
2023-10-10T11:47:25.718Z,15.60
2023-10-10T11:50:45.468Z,15.60
2023-10-10T11:53:48.528Z,15.60
2023-10-10T11:56:51.585Z,15.60
2023-10-10T11:59:56.018Z,15.50
2023-10-10T12:02:59.256Z,15.60
2023-10-10T12:06:02.508Z,15.60
2023-10-10T12:09:05.880Z,15.60
2023-10-10T12:12:10.933Z,15.60
2023-10-10T12:15:20.851Z,15.80
2023-10-10T12:18:24.174Z,16.00
2023-10-10T12:21:27.703Z,16.40
2023-10-10T12:24:30.729Z,16.60
2023-10-10T12:27:33.744Z,16.60
2023-10-10T12:30:41.704Z,16.60
2023-10-10T12:33:46.771Z,16.40
2023-10-10T12:36:50.456Z,16.40
2023-10-10T12:39:53.787Z,16.30
2023-10-10T12:42:57.330Z,16.30
2023-10-10T12:46:05.760Z,16.20
2023-10-10T12:49:12.713Z,16.10
2023-10-10T12:52:18.446Z,16.10
2023-10-10T12:55:26.724Z,16.20
2023-10-10T12:58:31.558Z,16.40
2023-10-10T13:01:37.157Z,16.60
2023-10-10T13:04:40.305Z,16.80
2023-10-10T13:07:44.712Z,16.90
2023-10-10T13:10:55.579Z,16.90
2023-10-10T13:14:00.690Z,17.00
2023-10-10T13:17:21.708Z,17.00
2023-10-10T13:20:25.391Z,16.80
2023-10-10T13:23:28.568Z,16.60
2023-10-10T13:26:32.948Z,16.70
2023-10-10T13:29:37.809Z,16.80
2023-10-10T13:32:43.162Z,16.80
2023-10-10T13:35:46.561Z,16.60
2023-10-10T13:38:51.822Z,16.80
2023-10-10T13:41:57.921Z,17.00
2023-10-10T13:45:12.197Z,17.10
2023-10-10T13:48:19.362Z,17.20
2023-10-10T13:51:22.959Z,17.20
2023-10-10T13:54:27.809Z,17.00
2023-10-10T13:57:30.899Z,16.70
2023-10-10T14:00:37.418Z,16.60
2023-10-10T14:03:46.985Z,16.60
2023-10-10T14:06:50.253Z,16.40
2023-10-10T14:10:03.038Z,16.40
2023-10-10T14:13:21.145Z,16.50
2023-10-10T14:16:25.442Z,16.60
2023-10-10T14:19:33.933Z,16.60
2023-10-10T14:22:49.874Z,16.60
2023-10-10T14:26:13.957Z,16.60
2023-10-10T14:29:18.534Z,16.60
2023-10-10T14:32:37.475Z,16.60
2023-10-10T14:35:45.078Z,16.50
2023-10-10T14:38:51.093Z,16.50
2023-10-10T14:41:54.247Z,16.50
2023-10-10T14:44:57.301Z,16.60
2023-10-10T14:48:00.658Z,16.50
2023-10-10T14:51:06.713Z,16.60
2023-10-10T14:54:13.301Z,16.40
2023-10-10T14:57:25.674Z,16.40
2023-10-10T15:00:30.423Z,16.40
2023-10-10T15:03:42.469Z,16.40
2023-10-10T15:06:48.465Z,16.40
2023-10-10T15:09:51.745Z,16.20
2023-10-10T15:12:55.067Z,16.20
2023-10-10T15:15:58.111Z,16.20
2023-10-10T15:19:03.121Z,16.20
2023-10-10T15:22:13.707Z,16.20
2023-10-10T15:25:16.933Z,16.20
2023-10-10T15:28:20.148Z,16.20
2023-10-10T15:31:28.080Z,16.30
2023-10-10T15:34:32.215Z,16.30
2023-10-10T15:37:43.333Z,16.30
2023-10-10T15:40:46.496Z,16.30
2023-10-10T15:43:50.524Z,16.20
2023-10-10T15:46:59.665Z,16.20
2023-10-10T15:50:03.357Z,16.20
2023-10-10T15:53:07.843Z,16.00
2023-10-10T15:56:17.174Z,15.80
2023-10-10T15:59:23.746Z,15.80
2023-10-10T16:02:40.802Z,15.80
2023-10-10T16:05:44.536Z,15.60
2023-10-10T16:08:50.782Z,15.60
2023-10-10T16:11:55.613Z,15.60
2023-10-10T16:15:01.519Z,15.60
2023-10-10T16:18:05.594Z,15.60
2023-10-10T16:21:09.831Z,15.50
2023-10-10T16:24:15.999Z,15.50
2023-10-10T16:27:19.624Z,15.40
2023-10-10T16:30:23.359Z,15.40
2023-10-10T16:33:27.545Z,15.30
2023-10-10T16:36:30.947Z,15.30
2023-10-10T16:39:36.578Z,15.30
2023-10-10T16:42:40.383Z,15.20
2023-10-10T16:45:44.729Z,15.20
2023-10-10T16:48:48.943Z,15.20
2023-10-10T16:51:55.675Z,15.20
2023-10-10T16:55:01.060Z,15.20
2023-10-10T16:58:04.565Z,15.20
2023-10-10T17:04:28.321Z,15.20
2023-10-10T17:07:32.097Z,15.20
2023-10-10T17:10:38.288Z,15.20
2023-10-10T17:13:44.927Z,15.20
2023-10-10T17:16:48.519Z,15.20
2023-10-10T17:19:53.835Z,15.20
2023-10-10T17:23:00.862Z,15.20
2023-10-10T17:26:09.411Z,15.20
2023-10-10T17:36:21.619Z,15.10
2023-10-10T17:39:30.221Z,15.10
2023-10-10T17:42:36.225Z,15.10
2023-10-10T17:45:44.270Z,15.20
2023-10-10T17:48:48.808Z,15.20
2023-10-10T17:51:54.660Z,15.20
2023-10-10T17:54:59.243Z,15.10
2023-10-10T17:58:04.647Z,15.00
2023-10-10T18:01:11.327Z,15.00
2023-10-10T18:04:16.762Z,15.10
2023-10-10T18:07:23.548Z,15.00
2023-10-10T18:10:31.479Z,15.00
2023-10-10T18:13:36.818Z,15.00
2023-10-10T18:16:41.087Z,15.00
2023-10-10T18:19:44.816Z,15.00
2023-10-10T18:22:49.792Z,15.00
2023-10-10T18:25:53.488Z,15.00
2023-10-10T18:28:58.357Z,15.00
2023-10-10T18:32:02.144Z,15.00
2023-10-10T18:35:07.250Z,15.00
2023-10-10T18:38:11.712Z,15.00
2023-10-10T18:41:15.412Z,15.00
2023-10-10T18:44:20.774Z,15.00
2023-10-10T18:47:25.683Z,15.00
2023-10-10T18:50:30.674Z,15.00
2023-10-10T18:53:37.717Z,15.00
2023-10-10T18:56:42.178Z,15.00
2023-10-10T18:59:48.261Z,15.00
2023-10-10T19:02:51.532Z,15.00
2023-10-10T19:05:55.238Z,15.00
2023-10-10T19:09:01.431Z,15.00
2023-10-10T19:12:06.734Z,15.00
2023-10-10T19:15:14.173Z,14.90
2023-10-10T19:18:18.750Z,14.90
2023-10-10T19:21:25.086Z,14.90
2023-10-10T19:24:29.403Z,14.80
2023-10-10T19:27:32.467Z,14.80
2023-10-10T19:30:40.652Z,14.80
2023-10-10T19:33:43.985Z,14.70
2023-10-10T19:36:48.808Z,14.80
2023-10-10T19:39:52.426Z,14.70
2023-10-10T19:42:55.875Z,14.70
2023-10-10T19:46:00.479Z,14.70
2023-10-10T19:49:05.862Z,14.70
2023-10-10T19:52:12.344Z,14.70
2023-10-10T19:55:22.398Z,14.70
2023-10-10T19:58:26.337Z,14.60
2023-10-10T20:01:34.784Z,14.60
2023-10-10T20:04:39.626Z,14.60
2023-10-10T20:07:48.314Z,14.60
2023-10-10T20:10:51.891Z,14.60
2023-10-10T20:13:55.324Z,14.60
2023-10-10T20:17:02.352Z,14.60
2023-10-10T20:20:07.152Z,14.60
2023-10-10T20:23:11.101Z,14.60
2023-10-10T20:26:19.034Z,14.60
2023-10-10T20:29:29.970Z,14.60
2023-10-10T20:32:35.965Z,14.60
2023-10-10T20:35:39.145Z,14.60
2023-10-10T20:38:43.998Z,14.60
2023-10-10T20:41:49.491Z,14.60
2023-10-10T20:44:52.810Z,14.60
2023-10-10T20:47:57.939Z,14.60
2023-10-10T20:51:03.947Z,14.60
2023-10-10T20:54:07.918Z,14.60
2023-10-10T20:57:11.124Z,14.60
2023-10-10T21:00:21.680Z,14.60
2023-10-10T21:03:26.875Z,14.60
2023-10-10T21:06:30.150Z,14.60
2023-10-10T21:09:37.116Z,14.60
2023-10-10T21:12:41.426Z,14.60
2023-10-10T21:15:45.586Z,14.60
2023-10-10T21:18:50.188Z,14.60
2023-10-10T21:21:55.747Z,14.60
2023-10-10T21:25:01.115Z,14.70
2023-10-10T21:28:08.402Z,14.70
2023-10-10T21:31:12.136Z,14.70
2023-10-10T21:34:16.801Z,14.60
2023-10-10T21:37:19.925Z,14.70
2023-10-10T21:40:23.327Z,14.70
2023-10-10T21:43:26.442Z,14.70
2023-10-10T21:46:29.496Z,14.70
2023-10-10T21:49:34.226Z,14.70
2023-10-10T21:52:37.472Z,14.60
2023-10-10T21:55:41.988Z,14.60
2023-10-10T21:58:45.132Z,14.50
2023-10-10T22:01:52.788Z,14.50
2023-10-10T22:05:01.620Z,14.40
2023-10-10T22:08:07.714Z,14.40
2023-10-10T22:11:13.725Z,14.40
2023-10-10T22:14:16.731Z,14.40
2023-10-10T22:17:22.827Z,14.30
2023-10-10T22:20:30.205Z,14.30
2023-10-10T22:23:33.317Z,14.30
2023-10-10T22:26:36.509Z,14.30
2023-10-10T22:29:39.623Z,14.30
2023-10-10T22:32:43.864Z,14.20
2023-10-10T22:35:51.063Z,14.20
2023-10-10T22:38:54.220Z,14.20
2023-10-10T22:41:58.374Z,14.10
2023-10-10T22:45:01.739Z,14.10
2023-10-10T22:48:09.232Z,14.10
2023-10-10T22:51:14.864Z,14.10
2023-10-10T22:54:18.076Z,14.00
2023-10-10T22:57:21.226Z,14.00
2023-10-10T23:00:30.151Z,14.00
2023-10-10T23:03:37.166Z,14.00
2023-10-10T23:06:43.108Z,14.00
2023-10-10T23:09:48.489Z,14.00
2023-10-10T23:12:52.487Z,14.00
2023-10-10T23:15:55.720Z,14.00
2023-10-10T23:18:59.205Z,13.90
2023-10-10T23:22:08.867Z,13.90
2023-10-10T23:25:13.622Z,13.90
2023-10-10T23:28:16.674Z,13.90
2023-10-10T23:31:20.090Z,13.90
2023-10-10T23:34:23.508Z,13.90
2023-10-10T23:37:30.897Z,13.90
2023-10-10T23:40:40.226Z,13.90
2023-10-10T23:43:47.407Z,13.90
2023-10-10T23:46:50.592Z,13.90
2023-10-10T23:49:53.962Z,13.90
2023-10-10T23:53:03.220Z,13.90
2023-10-10T23:56:09.577Z,13.80
2023-10-10T23:59:12.642Z,13.80
